EmailTwitter


Surface observations / Europe / LIRF (16242)

Regions: Quebec | Canada | USA | Europe | France | UK | Elsewhere
Station
Display
Info & Location for LIRF (16242) | Help decoding METAR

Weather Conditions observed on 2018/10/17 at 00:20 UTC (LIRF)

Temperature: 17.0 Celsius.

Dewpoint: 16.0 Celsius.

Relative Humidity: 94%

Humidex: 22.

Winds: Northeast at 9 km/h or 5 knots.

Mean Sea level Pressure: 101.70 kilopascals.

Coded METAR:

LIRF 170020Z 06005KT CAVOK 17/16 Q1017 NOSIG=